Midland, TX

10:18 AM CDT on August 29, 2016 (GMT -0500)
Midland International | | Change Station
Active Advisory: Flash Flood Watch

Elev 2861 ft 31.95 °N, 102.21 °W | Updated 25 minutes ago

Scattered Clouds
Scattered Clouds
72 °F
Feels Like 72 °F
N
16
Wind Variable Wind from ENE

Today
High -- | Low -- °F
--% Chance of Precip.
Yesterday
High -- | Low -- °F
Precip. -- in
Pressure 30.02 in
Visibility 10.0 miles
Clouds Scattered Clouds 8500 ft
Dew Point 66 °F
Humidity 81%
Rainfall 0.06 in
Snow Depth Not available.
7:22 AM 8:15 PM
Waning Crescent, 8% visible
METAR KMAF 291453Z 07014KT 10SM SCT085 22/19 A3015 RMK AO2 SLP166 T02220189 53010
Pressure 30.02 in
Visibility 10.0 miles
Clouds Scattered Clouds 8500 ft
Dew Point 66 °F
Humidity 81%
Rainfall 0.06 in
Snow Depth Not available.
7:22 AM 8:15 PM
Waning Crescent, 8% visible
METAR KMAF 291453Z 07014KT 10SM SCT085 22/19 A3015 RMK AO2 SLP166 T02220189 53010

10-Day Weather Forecast

Almanac

Astronomy

Aug. 29, 2016 Rise Set
Actual Time
Civil Twilight
Nautical Twilight
Astronomical Twilight
Moon
Length of Visible Light
Length of Day
Tomorrow will be .
, % of the Moon is Illuminated

Today's Extremes

State Highs State Lows

Community

WunderPhotos

Upload Photos

1,935,841 photos uploaded!

WunderBlog® & News

Nearby

Air Quality

  Air Quality AQ Index Pollutant
Not available.

Snow Depth

Station Depth Elevation

Earthquake Activity

City Distance Mag. Time & Date
Minimum magnitude displayed is 2.5.

Coastal Water Temperatures

Place Temperature

Stations

Nearby Weather Stations

Station Location Temp. Windchill Dew Point Humidity Wind Precip. Elev Updated Type
                   

Watches & Warnings

Flash Flood Watch
Issued: 3:33 AM MDT Aug. 29, 2016 – National Weather Service

... Flash Flood Watch in effect through Tuesday morning...

* heavy rainfall amounts of 2 to 4 inches possible with isolated
higher amounts.

* Dont drive into areas where water covers the Road. The water
may be deeper than it appears and less than a foot of rushing
water can float many vehicles. If you encounter water flowing
across a roadway... turn around... dont drown.

Precautionary/preparedness actions...

A Flash Flood Watch means that conditions may develop that lead
to flash flooding. Flash flooding is a very dangerous situation.

You should monitor later forecasts and be prepared to take action
should flash flood warnings be issued.



Rhluchan